Time;durP1;ratioP1;P1;durP2;ratioP2;P2;SDS_P1;SDS_P2;PMS_P1;PMS_P2;Temp;Humidity;BMP_temperature;BMP_pressure;BME280_temperature;BME280_humidity;BME280_pressure;Samples;Min_cycle;Max_cycle;Signal;HPM_P1;HPM_P2
2023/05/04 00:01:10;;;;;;;7.57;6.47;;;;;;;5.48;100.00;96993.09;7400146;19;20396;-75
2023/05/04 00:03:37;;;;;;;7.60;6.87;;;;;;;5.36;100.00;96980.34;7399580;19;20356;-74
2023/05/04 00:06:04;;;;;;;7.87;7.07;;;;;;;5.24;100.00;96985.94;7398964;19;20443;-75
2023/05/04 00:08:31;;;;;;;8.70;7.27;;;;;;;4.92;100.00;96941.91;7400440;19;20424;-74
2023/05/04 00:10:58;;;;;;;10.90;8.43;;;;;;;4.86;100.00;96955.31;7402765;19;20366;-75
2023/05/04 00:13:25;;;;;;;8.83;7.93;;;;;;;4.92;100.00;96952.38;7399716;19;20400;-75
2023/05/04 00:15:52;;;;;;;11.60;8.27;;;;;;;4.76;100.00;96961.41;7398036;19;20721;-75
2023/05/04 00:18:19;;;;;;;9.50;7.53;;;;;;;5.15;100.00;96977.09;7398363;19;20420;-75
2023/05/04 00:20:46;;;;;;;8.00;6.63;;;;;;;5.29;100.00;96980.66;7398629;19;20369;-75
2023/05/04 00:23:13;;;;;;;13.33;8.30;;;;;;;4.85;100.00;96956.38;7400713;19;20922;-75
2023/05/04 00:25:40;;;;;;;7.70;7.10;;;;;;;4.83;100.00;96982.06;7397698;19;20448;-74
2023/05/04 00:28:06;;;;;;;7.87;7.17;;;;;;;4.69;100.00;96946.03;7399140;19;20824;-75
2023/05/04 00:30:33;;;;;;;7.13;6.53;;;;;;;4.67;100.00;96969.09;7408499;19;20405;-75
2023/05/04 00:33:00;;;;;;;9.80;7.63;;;;;;;4.85;100.00;96967.63;7406100;19;20371;-75
2023/05/04 00:35:30;;;;;;;8.60;7.83;;;;;;;4.67;100.00;96963.84;7395763;19;20416;-75
2023/05/04 00:37:57;;;;;;;8.33;7.40;;;;;;;4.93;100.00;96976.75;7398421;19;20436;-75
2023/05/04 00:40:24;;;;;;;7.37;6.50;;;;;;;4.95;100.00;96975.44;7397415;19;20387;-75
2023/05/04 00:42:51;;;;;;;7.40;6.30;;;;;;;4.99;100.00;96975.66;7395610;19;20349;-75
2023/05/04 00:45:18;;;;;;;8.00;7.30;;;;;;;4.77;100.00;96946.47;7397201;19;20368;-75
2023/05/04 00:47:45;;;;;;;9.60;7.17;;;;;;;4.74;100.00;96943.34;7398260;19;20857;-75
2023/05/04 00:50:13;;;;;;;7.10;6.33;;;;;;;4.66;100.00;96925.59;7396915;19;20964;-75
2023/05/04 00:52:42;;;;;;;7.40;6.77;;;;;;;4.35;100.00;96901.47;7398790;19;20373;-75
2023/05/04 00:55:10;;;;;;;8.33;7.40;;;;;;;4.60;100.00;96968.59;7395467;19;20373;-75
2023/05/04 00:57:38;;;;;;;7.37;6.73;;;;;;;4.82;100.00;96954.31;7400263;19;20340;-75
2023/05/04 01:00:07;;;;;;;10.60;7.07;;;;;;;4.45;100.00;96945.13;7394873;19;20381;-75
2023/05/04 01:02:34;;;;;;;7.40;6.20;;;;;;;4.67;100.00;96963.84;7399546;19;20392;-75
2023/05/04 01:05:01;;;;;;;13.83;7.07;;;;;;;4.66;100.00;96945.75;7395917;19;20395;-75
2023/05/04 01:07:57;;;;;;;8.20;7.60;;;;;;;4.51;100.00;96941.41;7398725;19;20444;-75
2023/05/04 01:10:51;;;;;;;8.17;7.40;;;;;;;4.31;100.00;96928.47;7398135;19;20372;-75
2023/05/04 01:13:21;;;;;;;11.57;8.17;;;;;;;4.52;100.00;96948.22;7398831;19;20869;-75
2023/05/04 01:15:49;;;;;;;14.23;9.07;;;;;;;4.36;100.00;96958.00;7393831;19;20916;-74
2023/05/04 01:18:16;;;;;;;9.30;8.40;;;;;;;4.19;100.00;96948.94;7396402;19;21076;-75
2023/05/04 01:20:43;;;;;;;8.90;8.10;;;;;;;4.02;100.00;96933.56;7396102;19;20387;-75
2023/05/04 01:23:10;;;;;;;9.13;8.30;;;;;;;3.92;100.00;96947.47;7397090;19;20383;-75
2023/05/04 01:25:50;;;;;;;10.90;8.53;;;;;;;3.65;100.00;96897.38;7396007;19;20385;-75
2023/05/04 01:28:26;;;;;;;10.83;8.03;;;;;;;3.66;100.00;96946.78;7397086;19;20435;-75
2023/05/04 01:30:56;;;;;;;9.73;8.77;;;;;;;3.83;100.00;96959.53;7396162;19;20397;-75
2023/05/04 01:33:24;;;;;;;7.93;7.07;;;;;;;3.93;100.00;96958.72;7397819;19;20413;-75
2023/05/04 01:35:51;;;;;;;8.53;7.73;;;;;;;3.68;100.00;96962.19;7395102;19;20372;-75
2023/05/04 01:38:18;;;;;;;7.97;7.23;;;;;;;3.76;100.00;96941.53;7395150;19;20964;-75
2023/05/04 01:40:45;;;;;;;9.17;7.30;;;;;;;4.19;100.00;96959.41;7396642;19;20444;-75
2023/05/04 01:43:12;;;;;;;10.57;7.63;;;;;;;3.64;100.00;96912.28;7398915;19;20771;-75
2023/05/04 01:45:39;;;;;;;9.57;8.57;;;;;;;3.97;100.00;96942.22;7396135;19;20773;-75
2023/05/04 01:48:06;;;;;;;9.13;7.80;;;;;;;4.10;100.00;96933.00;7398792;19;20389;-75
2023/05/04 01:50:33;;;;;;;9.57;8.77;;;;;;;4.08;100.00;96938.50;7397185;19;20385;-75
2023/05/04 01:53:01;;;;;;;9.03;8.13;;;;;;;4.00;100.00;96927.81;7394038;19;20376;-75
2023/05/04 01:55:27;;;;;;;9.33;7.80;;;;;;;3.74;100.00;96916.66;7394388;19;20913;-75
2023/05/04 01:57:54;;;;;;;7.60;6.80;;;;;;;4.10;100.00;96957.31;7393956;19;20373;-75
2023/05/04 02:00:21;;;;;;;12.33;7.60;;;;;;;3.88;100.00;96961.38;7395407;19;20455;-75
2023/05/04 02:02:48;;;;;;;7.93;7.23;;;;;;;3.86;100.00;96936.22;7395751;19;20337;-75
2023/05/04 02:05:17;;;;;;;8.80;6.77;;;;;;;3.93;100.00;96948.25;7395663;19;20433;-75
2023/05/04 02:07:45;;;;;;;8.50;7.60;;;;;;;3.59;100.00;96912.28;7394068;19;20345;-75
2023/05/04 02:10:11;;;;;;;8.13;7.33;;;;;;;3.67;100.00;96934.47;7395280;19;20965;-75
2023/05/04 02:12:41;;;;;;;8.13;6.90;;;;;;;3.85;100.00;96947.75;7401475;19;20369;-76
2023/05/04 02:15:09;;;;;;;7.40;6.80;;;;;;;3.81;100.00;96957.19;7404205;19;20812;-75
2023/05/04 02:17:36;;;;;;;7.57;6.83;;;;;;;3.78;100.00;96949.09;7393921;19;20400;-75
2023/05/04 02:20:03;;;;;;;8.17;7.47;;;;;;;3.51;100.00;96931.13;7395765;19;20377;-75
2023/05/04 02:22:31;;;;;;;8.70;7.00;;;;;;;3.46;100.00;96905.78;7410374;19;20393;-76
2023/05/04 02:24:58;;;;;;;7.30;6.70;;;;;;;3.55;100.00;96940.78;7431356;19;20396;-77
2023/05/04 02:27:25;;;;;;;7.60;6.80;;;;;;;2.85;100.00;96913.72;7429549;19;20396;-77
2023/05/04 02:29:51;;;;;;;6.80;6.10;;;;;;;2.92;100.00;96908.22;7417300;19;20436;-75
2023/05/04 02:32:18;;;;;;;8.67;6.17;;;;;;;3.09;100.00;96944.53;7391785;19;20932;-75
2023/05/04 02:34:45;;;;;;;8.47;7.60;;;;;;;3.14;100.00;96927.00;7392222;19;20397;-75
2023/05/04 02:37:12;;;;;;;8.67;6.63;;;;;;;3.13;100.00;96903.78;7394427;19;20361;-75
2023/05/04 02:39:39;;;;;;;9.17;6.80;;;;;;;3.16;100.00;96900.63;7393500;19;20794;-75
2023/05/04 02:42:06;;;;;;;8.90;8.00;;;;;;;3.30;100.00;96935.59;7394162;19;20407;-75
2023/05/04 02:44:33;;;;;;;7.93;6.20;;;;;;;3.15;100.00;96919.97;7395199;19;20743;-75
2023/05/04 02:47:00;;;;;;;7.27;6.50;;;;;;;3.32;100.00;96951.03;7395183;19;20410;-75
2023/05/04 02:49:29;;;;;;;8.80;6.60;;;;;;;3.19;100.00;96921.00;7393989;19;20528;-75
2023/05/04 02:51:56;;;;;;;7.70;6.90;;;;;;;3.00;100.00;96923.38;7395132;19;20369;-75
2023/05/04 02:54:22;;;;;;;9.30;6.40;;;;;;;2.87;100.00;96948.19;7395147;19;20376;-74
2023/05/04 02:56:49;;;;;;;7.20;6.50;;;;;;;2.64;100.00;96907.69;7393828;19;20396;-75
2023/05/04 02:59:16;;;;;;;8.10;6.93;;;;;;;2.82;100.00;96916.06;7393802;19;20441;-75
2023/05/04 03:01:43;;;;;;;9.00;6.47;;;;;;;2.95;100.00;96949.50;7395037;19;20369;-75
2023/05/04 03:04:10;;;;;;;8.87;6.80;;;;;;;2.78;100.00;96912.41;7397158;19;20749;-75
2023/05/04 03:06:37;;;;;;;9.30;6.63;;;;;;;3.04;100.00;96944.50;7395227;19;20349;-75
2023/05/04 03:09:04;;;;;;;10.20;7.20;;;;;;;3.00;100.00;96943.47;7393516;19;20433;-75
2023/05/04 03:11:31;;;;;;;8.60;6.60;;;;;;;2.92;100.00;96958.63;7393480;19;20426;-75
2023/05/04 03:13:58;;;;;;;10.43;6.30;;;;;;;2.81;100.00;96946.63;7391946;19;20405;-75
2023/05/04 03:16:25;;;;;;;9.03;6.47;;;;;;;2.94;100.00;96951.34;7391712;19;20391;-76
2023/05/04 03:18:52;;;;;;;6.87;6.20;;;;;;;2.66;100.00;96926.50;7390885;19;20517;-75
2023/05/04 03:21:33;;;;;;;6.60;5.60;;;;;;;2.61;100.00;96950.00;7394221;19;20925;-74
2023/05/04 03:24:00;;;;;;;7.17;6.53;;;;;;;2.91;100.00;96941.38;7399284;19;20396;-75
2023/05/04 03:26:27;;;;;;;8.07;6.57;;;;;;;2.66;100.00;96936.16;7401380;19;20380;-75
2023/05/04 03:28:54;;;;;;;6.50;5.90;;;;;;;2.28;100.00;96896.47;7397945;19;20385;-75
2023/05/04 03:31:21;;;;;;;7.77;6.97;;;;;;;2.86;100.00;96940.63;7400925;19;20369;-75
2023/05/04 03:33:51;;;;;;;6.80;6.17;;;;;;;2.50;100.00;96926.75;7400344;19;20452;-75
2023/05/04 03:36:18;;;;;;;6.83;5.83;;;;;;;2.57;100.00;96927.28;7398953;19;20896;-75
2023/05/04 03:38:45;;;;;;;7.63;6.70;;;;;;;2.63;100.00;96921.00;7398186;19;20774;-74
2023/05/04 03:41:12;;;;;;;9.50;7.30;;;;;;;2.38;100.00;96916.53;7401180;19;20396;-74
2023/05/04 03:43:39;;;;;;;6.90;6.23;;;;;;;2.55;100.00;96934.59;7399688;19;20398;-74
2023/05/04 03:46:06;;;;;;;7.90;7.10;;;;;;;2.34;100.00;96937.16;7400779;19;21029;-75
2023/05/04 03:48:33;;;;;;;7.50;6.80;;;;;;;2.26;100.00;96916.78;7398111;19;20431;-75
2023/05/04 03:51:00;;;;;;;7.93;7.07;;;;;;;2.58;100.00;96940.06;7400973;19;20437;-75
2023/05/04 03:53:27;;;;;;;7.57;6.87;;;;;;;2.52;100.00;96915.00;7404289;19;20369;-74
2023/05/04 03:55:55;;;;;;;9.33;7.17;;;;;;;2.52;100.00;96941.09;7405250;19;20421;-74
2023/05/04 03:58:21;;;;;;;7.67;6.97;;;;;;;2.20;100.00;96888.34;7399922;19;20410;-74
2023/05/04 04:00:48;;;;;;;9.23;7.97;;;;;;;2.57;100.00;96925.47;7400623;19;20376;-74
2023/05/04 04:03:16;;;;;;;7.90;6.97;;;;;;;2.17;100.00;96883.66;7398916;19;20401;-74
2023/05/04 04:05:43;;;;;;;10.03;7.67;;;;;;;2.57;100.00;96914.22;7397301;19;20409;-75
2023/05/04 04:08:10;;;;;;;9.30;7.00;;;;;;;2.86;100.00;96928.34;7398486;19;20412;-75
2023/05/04 04:10:37;;;;;;;7.47;6.70;;;;;;;2.75;100.00;96924.16;7400354;19;20888;-74
2023/05/04 04:13:04;;;;;;;10.73;7.00;;;;;;;2.65;100.00;96945.03;7398798;19;20337;-74
2023/05/04 04:15:31;;;;;;;7.43;6.73;;;;;;;2.42;100.00;96915.00;7400846;19;20388;-74
2023/05/04 04:17:58;;;;;;;8.07;7.37;;;;;;;2.77;100.00;96945.56;7398488;19;20417;-74
2023/05/04 04:20:25;;;;;;;7.17;6.47;;;;;;;2.81;100.00;96932.78;7402004;19;20369;-75
2023/05/04 04:22:52;;;;;;;8.50;6.70;;;;;;;2.70;100.00;96916.34;7398883;19;20750;-74
2023/05/04 04:25:19;;;;;;;7.67;6.83;;;;;;;2.77;100.00;96929.91;7398041;19;20377;-75
2023/05/04 04:27:46;;;;;;;7.73;7.00;;;;;;;3.03;100.00;96948.19;7399127;19;20381;-75
2023/05/04 04:30:13;;;;;;;7.83;7.10;;;;;;;2.98;100.00;96928.06;7397780;19;20352;-74
2023/05/04 04:32:40;;;;;;;7.40;6.50;;;;;;;3.11;100.00;96938.00;7400254;19;20377;-75
2023/05/04 04:35:07;;;;;;;7.87;7.10;;;;;;;2.99;100.00;96934.88;7393928;19;20908;-76
2023/05/04 04:37:34;;;;;;;7.83;7.00;;;;;;;2.98;100.00;96922.84;7398646;19;20397;-75
2023/05/04 04:40:02;;;;;;;10.27;8.90;;;;;;;3.30;100.00;96955.72;7397408;19;20426;-76
2023/05/04 04:42:31;;;;;;;11.67;10.53;;;;;;;3.25;100.00;96941.63;7398215;19;20913;-76
2023/05/04 04:44:58;;;;;;;14.47;9.20;;;;;;;3.40;100.00;96948.66;7397014;19;20400;-76
2023/05/04 04:47:25;;;;;;;12.10;9.13;;;;;;;3.61;100.00;96951.25;7400524;19;20930;-76
2023/05/04 04:49:52;;;;;;;11.23;7.20;;;;;;;3.38;100.00;96935.09;7395575;19;20841;-76
2023/05/04 04:52:19;;;;;;;11.00;7.97;;;;;;;3.46;100.00;96933.75;7399617;19;20352;-76
2023/05/04 04:54:46;;;;;;;10.03;8.30;;;;;;;3.46;100.00;96947.59;7396744;19;20444;-76
2023/05/04 04:57:13;;;;;;;11.57;9.60;;;;;;;3.37;100.00;96933.53;7396066;19;20365;-76
2023/05/04 04:59:40;;;;;;;13.00;9.77;;;;;;;3.59;100.00;96964.56;7396415;19;20759;-76
2023/05/04 05:02:08;;;;;;;10.53;9.63;;;;;;;3.75;100.00;96973.94;7398013;19;20389;-76
2023/05/04 05:04:38;;;;;;;19.13;10.10;;;;;;;3.75;100.00;96937.34;7398557;19;20377;-76
2023/05/04 05:07:07;;;;;;;13.50;7.90;;;;;;;3.77;100.00;96961.38;7399464;19;20377;-76
2023/05/04 05:09:34;;;;;;;11.10;9.30;;;;;;;3.99;100.00;96961.03;7396114;19;20560;-76
2023/05/04 05:12:01;;;;;;;13.40;8.53;;;;;;;3.91;100.00;96951.13;7398319;19;20417;-76
2023/05/04 05:14:30;;;;;;;14.67;7.70;;;;;;;4.13;100.00;96951.56;7396450;19;20385;-76
2023/05/04 05:16:58;;;;;;;12.63;7.80;;;;;;;4.58;100.00;96972.53;7397890;19;20381;-76
2023/05/04 05:19:25;;;;;;;7.60;6.90;;;;;;;4.62;100.00;96939.50;7396187;19;20404;-76
2023/05/04 05:21:52;;;;;;;8.30;7.47;;;;;;;4.85;100.00;96941.44;7399119;19;20377;-76
2023/05/04 05:24:19;;;;;;;10.17;7.97;;;;;;;5.19;100.00;96970.25;7397083;19;20397;-76
2023/05/04 05:26:45;;;;;;;8.40;7.40;;;;;;;5.27;100.00;96967.03;7398733;19;20461;-76
2023/05/04 05:29:13;;;;;;;9.13;7.70;;;;;;;5.28;100.00;96947.63;7395943;19;20437;-76
2023/05/04 05:31:40;;;;;;;8.50;7.60;;;;;;;5.45;100.00;96931.47;7399876;19;20352;-76
2023/05/04 05:34:06;;;;;;;7.90;7.30;;;;;;;5.52;100.00;96945.03;7397745;19;20369;-76
2023/05/04 05:36:33;;;;;;;9.63;8.70;;;;;;;5.71;100.00;96963.47;7396703;19;20377;-76
2023/05/04 05:39:00;;;;;;;9.77;7.77;;;;;;;5.73;100.00;96921.22;7409155;19;20412;-75
2023/05/04 05:41:27;;;;;;;11.57;8.33;;;;;;;6.21;100.00;96964.75;7399312;19;20374;-76
2023/05/04 05:43:54;;;;;;;9.83;8.37;;;;;;;6.54;100.00;96972.72;7396332;19;20396;-73
2023/05/04 05:46:23;;;;;;;10.40;7.53;;;;;;;6.41;100.00;96953.22;7397132;19;20458;-73
2023/05/04 05:48:50;;;;;;;19.40;9.40;;;;;;;6.49;100.00;96965.69;7395388;19;20928;-73
2023/05/04 05:51:17;;;;;;;11.53;7.73;;;;;;;6.71;100.00;96983.53;7394228;19;20480;-73
2023/05/04 05:53:44;;;;;;;10.60;7.47;;;;;;;6.47;100.00;96946.03;7397288;19;20470;-73
2023/05/04 05:56:12;;;;;;;8.80;7.00;;;;;;;6.71;100.00;96948.59;7393612;19;20401;-73
2023/05/04 05:58:39;;;;;;;9.80;7.50;;;;;;;7.00;100.00;96969.44;7394883;19;21011;-74
2023/05/04 06:01:06;;;;;;;9.23;7.37;;;;;;;7.13;100.00;96962.66;7394373;19;20735;-74
2023/05/04 06:03:32;;;;;;;8.27;7.23;;;;;;;7.28;100.00;96952.69;7397317;19;20504;-74
2023/05/04 06:06:00;;;;;;;8.60;7.70;;;;;;;7.74;100.00;96965.00;7394193;19;20353;-74
2023/05/04 06:08:26;;;;;;;7.97;7.10;;;;;;;7.81;100.00;96957.53;7396456;19;20416;-74
2023/05/04 06:10:55;;;;;;;9.20;6.70;;;;;;;7.74;100.00;96953.69;7399058;19;20401;-74
2023/05/04 06:13:22;;;;;;;9.63;8.50;;;;;;;7.80;100.00;96960.44;7396810;19;20718;-74
2023/05/04 06:15:53;;;;;;;9.63;7.13;;;;;;;8.05;100.00;96967.88;7396178;19;20369;-74
2023/05/04 06:18:20;;;;;;;7.43;6.73;;;;;;;8.26;100.00;96961.09;7397241;19;20845;-74
2023/05/04 06:20:47;;;;;;;9.13;7.37;;;;;;;8.70;100.00;96958.91;7396765;19;20356;-75
2023/05/04 06:23:15;;;;;;;7.30;6.60;;;;;;;8.99;100.00;96969.03;7396433;19;20392;-75
2023/05/04 06:25:42;;;;;;;7.63;6.53;;;;;;;9.34;100.00;96973.44;7393927;19;20425;-74
2023/05/04 06:28:09;;;;;;;8.90;6.83;;;;;;;9.33;100.00;96958.69;7396830;19;20741;-74
2023/05/04 06:30:36;;;;;;;8.33;6.50;;;;;;;9.51;100.00;96954.31;7394269;19;20389;-74
2023/05/04 06:33:03;;;;;;;6.50;6.00;;;;;;;9.75;100.00;96972.44;7395941;19;20372;-74
2023/05/04 06:35:30;;;;;;;7.00;6.27;;;;;;;10.06;100.00;96967.88;7393785;19;20378;-74
2023/05/04 06:37:57;;;;;;;8.90;7.17;;;;;;;9.93;100.00;96937.06;7395633;19;20931;-74
2023/05/04 06:40:25;;;;;;;7.00;6.40;;;;;;;10.30;100.00;96946.38;7394049;19;20376;-74
2023/05/04 06:42:52;;;;;;;6.43;5.83;;;;;;;10.49;100.00;96948.72;7395418;19;20381;-74
2023/05/04 06:45:19;;;;;;;5.80;5.30;;;;;;;10.46;100.00;96946.69;7394168;19;20365;-74
2023/05/04 06:47:46;;;;;;;6.00;5.53;;;;;;;10.34;100.00;96943.88;7395799;19;20408;-74
2023/05/04 06:50:13;;;;;;;6.33;5.73;;;;;;;10.42;100.00;96935.19;7394503;19;20396;-74
2023/05/04 06:52:42;;;;;;;8.10;7.30;;;;;;;10.64;100.00;96945.59;7395357;19;20396;-74
2023/05/04 06:55:09;;;;;;;8.00;7.20;;;;;;;11.00;100.00;96952.47;7395163;19;20366;-74
2023/05/04 06:57:36;;;;;;;6.03;5.50;;;;;;;11.11;100.00;96935.16;7395787;19;20975;-74
2023/05/04 07:00:04;;;;;;;9.70;6.27;;;;;;;11.42;100.00;96948.16;7401307;19;20748;-75
2023/05/04 07:02:32;;;;;;;5.77;5.33;;;;;;;11.16;100.00;96923.63;7402884;19;20892;-74
2023/05/04 07:04:59;;;;;;;9.30;6.87;;;;;;;11.26;100.00;96936.53;7401526;19;20345;-74
2023/05/04 07:07:26;;;;;;;8.47;7.53;;;;;;;11.63;100.00;96944.84;7402878;19;20388;-74
2023/05/04 07:09:53;;;;;;;11.70;6.50;;;;;;;11.89;100.00;96958.81;7400165;19;20417;-74
2023/05/04 07:12:20;;;;;;;7.63;6.83;;;;;;;11.47;100.00;96937.41;7404484;19;20361;-74
2023/05/04 07:14:47;;;;;;;9.20;7.30;;;;;;;11.72;100.00;96953.53;7402725;19;20684;-75
2023/05/04 07:17:14;;;;;;;9.73;6.80;;;;;;;11.86;100.00;96929.50;7413983;19;20376;-74
2023/05/04 07:19:41;;;;;;;8.10;7.30;;;;;;;12.37;100.00;96953.06;7412674;19;20756;-74
2023/05/04 07:22:08;;;;;;;12.63;7.30;;;;;;;12.14;100.00;96944.63;7402008;19;20345;-74
2023/05/04 07:24:34;;;;;;;8.53;7.13;;;;;;;11.88;100.00;96965.19;7401883;19;20395;-75
2023/05/04 07:27:02;;;;;;;6.67;6.00;;;;;;;12.19;100.00;96961.47;7400373;19;20376;-75
2023/05/04 07:29:28;;;;;;;7.30;6.10;;;;;;;12.41;100.00;96931.97;7397116;19;20390;-74
2023/05/04 07:31:55;;;;;;;5.70;4.83;;;;;;;12.27;100.00;96926.94;7401108;19;20386;-75
2023/05/04 07:34:22;;;;;;;6.37;5.33;;;;;;;12.63;95.45;96960.84;7401059;19;20376;-74
2023/05/04 07:37:07;;;;;;;5.30;4.67;;;;;;;12.60;95.80;96963.38;7397447;19;20503;-75
2023/05/04 07:39:35;;;;;;;6.67;5.47;;;;;;;13.05;95.92;96962.72;7399235;19;20401;-75
2023/05/04 07:42:02;;;;;;;6.07;5.27;;;;;;;13.16;93.46;96932.78;7399961;19;20399;-75
2023/05/04 07:44:30;;;;;;;4.87;4.37;;;;;;;13.13;90.66;96953.91;7400828;19;20376;-75
2023/05/04 07:46:58;;;;;;;6.50;5.40;;;;;;;12.39;88.46;96919.06;7400390;19;20389;-75
2023/05/04 07:49:25;;;;;;;8.60;6.13;;;;;;;13.10;88.48;96941.28;7399543;19;20401;-74
2023/05/04 07:51:52;;;;;;;8.93;5.90;;;;;;;13.41;87.92;96952.25;7401460;19;20477;-75
2023/05/04 07:54:19;;;;;;;8.97;4.97;;;;;;;13.67;86.88;96951.97;7401889;19;20449;-75
2023/05/04 07:56:48;;;;;;;7.03;6.23;;;;;;;13.11;84.88;96935.66;7400039;19;20387;-75
2023/05/04 07:59:19;;;;;;;6.37;5.73;;;;;;;13.43;84.57;96938.63;7399402;19;20412;-75
2023/05/04 08:01:46;;;;;;;9.53;4.87;;;;;;;13.44;83.64;96924.25;7400042;19;20381;-75
2023/05/04 08:04:13;;;;;;;7.17;5.60;;;;;;;13.56;81.29;96934.88;7398762;19;20352;-75
2023/05/04 08:06:40;;;;;;;7.30;6.50;;;;;;;13.57;81.46;96937.22;7399771;19;20823;-75
2023/05/04 08:09:07;;;;;;;5.20;4.70;;;;;;;13.81;81.97;96933.81;7404492;19;20437;-76
2023/05/04 08:11:34;;;;;;;5.13;4.63;;;;;;;13.94;81.60;96931.94;7434782;19;20421;-76
2023/05/04 08:14:01;;;;;;;6.43;5.43;;;;;;;13.81;80.05;96925.84;7433852;19;20375;-76
2023/05/04 08:16:28;;;;;;;7.37;5.80;;;;;;;13.71;79.76;96920.19;7426398;19;20353;-74
2023/05/04 08:18:56;;;;;;;6.03;4.87;;;;;;;13.95;80.97;96935.38;7398377;19;20422;-74
2023/05/04 08:21:22;;;;;;;7.47;6.10;;;;;;;14.57;80.08;96944.88;7399700;19;20400;-74
2023/05/04 08:23:49;;;;;;;7.10;6.50;;;;;;;14.68;76.94;96928.06;7397960;19;20381;-74
2023/05/04 08:26:16;;;;;;;6.73;5.03;;;;;;;14.32;76.59;96920.94;7399034;19;20401;-73
2023/05/04 08:28:44;;;;;;;6.10;5.50;;;;;;;14.56;75.61;96945.97;7396249;19;20445;-73
2023/05/04 08:31:12;;;;;;;6.80;4.77;;;;;;;14.48;76.33;96947.66;7400460;19;20393;-73
2023/05/04 08:33:39;;;;;;;6.00;5.47;;;;;;;14.66;75.94;96932.19;7397654;19;20381;-73
2023/05/04 08:36:07;;;;;;;8.10;5.30;;;;;;;15.06;76.02;96938.25;7398967;19;20377;-74
2023/05/04 08:38:34;;;;;;;6.83;5.30;;;;;;;14.94;73.42;96929.53;7396155;19;20417;-74
2023/05/04 08:41:03;;;;;;;8.43;4.23;;;;;;;15.35;71.25;96947.75;7400636;19;20344;-74
2023/05/04 08:43:33;;;;;;;5.57;5.07;;;;;;;15.29;70.69;96948.38;7397591;19;20416;-74
2023/05/04 08:46:00;;;;;;;7.77;5.60;;;;;;;15.12;70.54;96927.38;7398900;19;20477;-74
2023/05/04 08:48:27;;;;;;;5.00;4.57;;;;;;;15.10;70.99;96919.72;7396231;19;20441;-74
2023/05/04 08:50:54;;;;;;;5.70;4.93;;;;;;;14.88;71.64;96929.00;7398842;19;20396;-74
2023/05/04 08:53:22;;;;;;;4.73;4.20;;;;;;;15.36;70.20;96936.00;7397485;19;20396;-74
2023/05/04 08:55:51;;;;;;;8.60;5.10;;;;;;;15.23;69.28;96950.50;7398999;19;20376;-74
2023/05/04 08:58:20;;;;;;;11.23;4.83;;;;;;;15.08;70.35;96943.22;7407464;19;20417;-74
2023/05/04 09:00:48;;;;;;;4.73;4.33;;;;;;;15.17;69.28;96895.91;7400334;19;20385;-74
2023/05/04 09:03:15;;;;;;;6.00;5.20;;;;;;;14.88;69.47;96920.25;7398740;19;20349;-74
2023/05/04 09:05:45;;;;;;;4.97;3.73;;;;;;;15.88;68.81;96948.34;7398707;19;20387;-74
2023/05/04 09:08:12;;;;;;;5.30;3.90;;;;;;;15.61;66.08;96949.19;7397388;19;20406;-74
2023/05/04 09:10:39;;;;;;;5.07;4.40;;;;;;;15.73;66.49;96949.13;7398318;19;20372;-74
2023/05/04 09:13:07;;;;;;;5.53;4.87;;;;;;;15.86;69.18;96947.91;7396961;19;20920;-74
2023/05/04 09:15:34;;;;;;;5.27;3.80;;;;;;;15.67;67.04;96947.84;7395704;19;20333;-74
2023/05/04 09:18:05;;;;;;;5.80;4.00;;;;;;;16.34;67.75;96950.53;7395351;19;20400;-74
2023/05/04 09:20:48;;;;;;;7.43;4.47;;;;;;;15.96;66.05;96950.06;7394785;19;20451;-74
2023/05/04 09:23:16;;;;;;;7.60;4.90;;;;;;;15.47;65.26;96946.91;7397739;19;20385;-74
2023/05/04 09:25:51;;;;;;;4.83;3.87;;;;;;;15.47;66.05;96941.59;7396808;19;20364;-73
2023/05/04 09:28:21;;;;;;;9.37;4.73;;;;;;;15.99;64.24;96935.25;7398958;19;20420;-73
2023/05/04 09:30:48;;;;;;;6.53;3.93;;;;;;;15.55;64.13;96924.66;7396411;19;20449;-74
2023/05/04 09:33:15;;;;;;;5.87;3.67;;;;;;;16.15;63.62;96932.56;7400038;19;20393;-74
2023/05/04 09:35:45;;;;;;;4.67;3.50;;;;;;;15.81;62.34;96931.41;7396355;19;20914;-74
2023/05/04 09:38:30;;;;;;;4.17;3.77;;;;;;;16.32;63.06;96929.53;7396659;19;20895;-74
2023/05/04 09:40:57;;;;;;;4.70;4.30;;;;;;;16.22;61.00;96927.41;7397168;19;20356;-74
2023/05/04 09:43:24;;;;;;;4.73;4.20;;;;;;;16.41;61.99;96924.75;7396755;19;20408;-74
2023/05/04 09:45:50;;;;;;;3.87;3.60;;;;;;;16.66;63.65;96932.53;7396469;19;21021;-74
2023/05/04 09:48:24;;;;;;;5.83;5.03;;;;;;;16.38;62.09;96908.69;7394575;19;20417;-74
2023/05/04 09:50:55;;;;;;;4.30;3.90;;;;;;;16.41;62.17;96929.31;7398234;19;20373;-74
2023/05/04 09:53:24;;;;;;;3.43;3.13;;;;;;;16.65;62.25;96920.31;7396858;19;20884;-74
2023/05/04 09:56:04;;;;;;;3.87;3.37;;;;;;;16.93;61.44;96912.88;7396789;19;20369;-73
2023/05/04 09:58:34;;;;;;;6.20;3.70;;;;;;;16.60;62.64;96859.19;7395841;19;20421;-73
2023/05/04 10:01:02;;;;;;;6.67;3.80;;;;;;;16.76;62.70;96910.63;7393948;19;20475;-73
2023/05/04 10:03:30;;;;;;;6.13;4.00;;;;;;;16.55;62.33;96914.38;7396232;19;20425;-74
2023/05/04 10:05:59;;;;;;;4.00;3.33;;;;;;;16.23;62.09;96891.59;7395634;19;20410;-75
2023/05/04 10:08:27;;;;;;;3.70;3.40;;;;;;;16.09;61.16;96900.06;7395324;19;20440;-75
2023/05/04 10:10:55;;;;;;;4.37;3.67;;;;;;;16.29;61.70;96900.84;7396972;19;20395;-75
2023/05/04 10:13:23;;;;;;;12.43;4.73;;;;;;;16.74;62.89;96902.22;7397104;19;20401;-75
2023/05/04 10:16:15;;;;;;;4.50;4.00;;;;;;;16.84;62.04;96904.31;7393824;19;20912;-75
2023/05/04 10:19:10;;;;;;;3.93;3.27;;;;;;;17.09;62.00;96889.53;7396622;19;20417;-75
2023/05/04 10:21:50;;;;;;;4.70;4.30;;;;;;;17.36;59.25;96886.91;7395559;19;20923;-75
2023/05/04 10:24:32;;;;;;;4.30;3.93;;;;;;;17.48;59.00;96881.41;7396040;19;20378;-75
2023/05/04 10:27:20;;;;;;;3.70;3.40;;;;;;;17.48;60.47;96878.72;7393791;19;20363;-75
2023/05/04 10:29:49;;;;;;;3.60;3.40;;;;;;;17.40;59.36;96871.72;7394373;19;20450;-75
2023/05/04 10:32:18;;;;;;;5.17;4.10;;;;;;;17.37;61.11;96869.78;7398689;19;20394;-75
2023/05/04 10:34:46;;;;;;;4.60;3.57;;;;;;;17.29;59.80;96868.09;7403514;19;20376;-75
2023/05/04 10:37:18;;;;;;;3.60;3.30;;;;;;;17.71;58.15;96884.09;7402095;19;20399;-74
2023/05/04 10:39:54;;;;;;;3.97;3.27;;;;;;;17.25;56.22;96877.97;7400829;19;20432;-74
2023/05/04 10:42:21;;;;;;;8.60;4.10;;;;;;;17.34;58.87;96846.41;7402141;19;20353;-74
2023/05/04 10:44:55;;;;;;;4.00;3.30;;;;;;;17.51;56.29;96869.25;7404008;19;20372;-74
2023/05/04 10:47:28;;;;;;;6.90;3.70;;;;;;;17.66;57.54;96842.34;7401940;19;20725;-73
2023/05/04 10:50:14;;;;;;;5.50;3.77;;;;;;;18.14;55.54;96858.72;7398305;19;20457;-73
2023/05/04 10:52:50;;;;;;;4.03;3.53;;;;;;;17.55;55.97;96856.69;7402708;19;20377;-74
2023/05/04 10:55:19;;;;;;;7.93;3.73;;;;;;;17.87;57.97;96851.84;7401520;19;20885;-74
2023/05/04 10:57:52;;;;;;;3.33;2.70;;;;;;;17.88;53.90;96843.44;7402927;19;20826;-74
2023/05/04 11:00:20;;;;;;;3.73;3.40;;;;;;;18.37;54.21;96841.81;7401377;19;20366;-74
2023/05/04 11:02:48;;;;;;;3.97;3.10;;;;;;;18.26;56.05;96828.28;7401909;19;20917;-74
2023/05/04 11:05:18;;;;;;;8.60;3.67;;;;;;;17.86;55.92;96836.91;7402250;19;20401;-74
2023/05/04 11:07:49;;;;;;;3.40;2.80;;;;;;;18.14;54.38;96842.66;7401899;19;20719;-74
2023/05/04 11:10:21;;;;;;;5.20;3.47;;;;;;;17.57;56.96;96807.06;7402175;19;20389;-73
2023/05/04 11:12:49;;;;;;;2.87;2.67;;;;;;;17.54;54.49;96802.44;7400822;19;20468;-73
2023/05/04 11:15:16;;;;;;;4.07;2.83;;;;;;;17.51;53.64;96823.78;7401970;19;20353;-74
2023/05/04 11:17:52;;;;;;;3.40;3.10;;;;;;;18.19;51.93;96826.31;7399110;19;20401;-74
2023/05/04 11:20:26;;;;;;;4.10;3.70;;;;;;;17.67;50.14;96824.41;7402368;19;20748;-73
2023/05/04 11:22:53;;;;;;;4.93;2.80;;;;;;;17.91;50.97;96820.56;7400548;19;20743;-73
2023/05/04 11:25:27;;;;;;;3.97;3.10;;;;;;;18.24;51.79;96820.63;7402913;19;20716;-74
2023/05/04 11:27:54;;;;;;;3.07;2.87;;;;;;;18.96;53.67;96821.44;7400394;19;20420;-74
2023/05/04 11:30:33;;;;;;;3.93;3.10;;;;;;;18.80;53.06;96814.41;7399197;19;20810;-74
2023/05/04 11:33:02;;;;;;;8.10;3.30;;;;;;;18.43;54.85;96810.88;7402442;19;20351;-74
2023/05/04 11:35:29;;;;;;;4.80;2.90;;;;;;;18.57;55.02;96789.66;7399436;19;20387;-74
2023/05/04 11:37:56;;;;;;;3.93;3.23;;;;;;;18.98;53.41;96792.38;7399951;19;20377;-74